Time;durP1;ratioP1;P1;durP2;ratioP2;P2;SDS_P1;SDS_P2;PMS_P1;PMS_P2;Temp;Humidity;BMP_temperature;BMP_pressure;BME280_temperature;BME280_humidity;BME280_pressure;Samples;Min_cycle;Max_cycle;Signal;HPM_P1;HPM_P2
2021/05/29 00:00:52;;;;;;;6.93;5.80;;;;;;;;;;5111065;28;20918;-80
2021/05/29 00:03:19;;;;;;;7.45;6.28;;;;;;;;;;5093027;28;20418;-80
2021/05/29 00:05:45;;;;;;;7.63;5.80;;;;;;;;;;5093158;28;20385;-79
2021/05/29 00:08:11;;;;;;;7.55;5.82;;;;;;;;;;5111959;28;20366;-79
2021/05/29 00:10:39;;;;;;;6.97;5.80;;;;;;;;;;5112104;28;20367;-80
2021/05/29 00:13:06;;;;;;;7.37;5.87;;;;;;;;;;5111969;28;20418;-79
2021/05/29 00:15:32;;;;;;;7.82;6.40;;;;;;;;;;5111692;28;20922;-80
2021/05/29 00:17:58;;;;;;;8.48;6.22;;;;;;;;;;5111987;28;20416;-80
2021/05/29 00:20:24;;;;;;;6.65;6.05;;;;;;;;;;5111358;28;20852;-80
2021/05/29 00:22:50;;;;;;;8.68;6.53;;;;;;;;;;5111337;28;20847;-80
2021/05/29 00:25:16;;;;;;;7.72;5.97;;;;;;;;;;5111681;28;20371;-80
2021/05/29 00:27:43;;;;;;;9.35;6.90;;;;;;;;;;5111716;28;20428;-80
2021/05/29 00:30:10;;;;;;;8.38;6.97;;;;;;;;;;5111399;28;20944;-80
2021/05/29 00:32:37;;;;;;;7.57;6.15;;;;;;;;;;5093290;28;20857;-80
2021/05/29 00:35:03;;;;;;;8.00;6.80;;;;;;;;;;5111554;28;20887;-80
2021/05/29 00:37:29;;;;;;;7.83;6.83;;;;;;;;;;5111387;28;20397;-80
2021/05/29 00:39:55;;;;;;;7.30;6.50;;;;;;;;;;5111426;28;20382;-80
2021/05/29 00:42:21;;;;;;;7.95;6.68;;;;;;;;;;5111655;28;20370;-80
2021/05/29 00:44:51;;;;;;;8.15;6.68;;;;;;;;;;5110865;28;20385;-80
2021/05/29 00:47:21;;;;;;;8.20;6.20;;;;;;;;;;5110794;28;20380;-80
2021/05/29 00:49:47;;;;;;;7.38;6.03;;;;;;;;;;5111210;28;20363;-80
2021/05/29 00:52:14;;;;;;;7.67;6.67;;;;;;;;;;5111137;28;20366;-79
2021/05/29 00:54:41;;;;;;;8.13;6.03;;;;;;;;;;5111242;28;20366;-80
2021/05/29 00:57:07;;;;;;;7.47;6.30;;;;;;;;;;5110988;28;20390;-80
2021/05/29 00:59:33;;;;;;;7.53;6.57;;;;;;;;;;5111056;28;20358;-80
2021/05/29 01:01:59;;;;;;;7.28;5.95;;;;;;;;;;5110780;28;20393;-79
2021/05/29 01:04:25;;;;;;;7.38;6.07;;;;;;;;;;5110815;28;20378;-80
2021/05/29 01:06:51;;;;;;;7.10;5.97;;;;;;;;;;5092469;28;20367;-80
2021/05/29 01:09:17;;;;;;;6.77;5.90;;;;;;;;;;5111082;28;20413;-80
2021/05/29 01:11:43;;;;;;;7.07;6.37;;;;;;;;;;5110649;28;20395;-80
2021/05/29 01:14:08;;;;;;;6.80;6.10;;;;;;;;;;5092530;28;20934;-80
2021/05/29 01:19:04;;;;;;;9.90;6.13;;;;;;;;;;5110544;28;20552;-80
2021/05/29 01:21:30;;;;;;;6.53;5.93;;;;;;;;;;5110486;28;20732;-80
2021/05/29 01:23:56;;;;;;;7.10;6.30;;;;;;;;;;5110887;28;20781;-80
2021/05/29 01:26:22;;;;;;;7.70;6.30;;;;;;;;;;5110506;28;20355;-80
2021/05/29 01:28:56;;;;;;;7.88;6.05;;;;;;;;;;5092030;28;20378;-80
2021/05/29 01:31:28;;;;;;;7.43;5.97;;;;;;;;;;5092322;28;20428;-79
2021/05/29 01:33:58;;;;;;;6.97;5.97;;;;;;;;;;5110529;28;20414;-80
2021/05/29 01:36:24;;;;;;;8.70;6.25;;;;;;;;;;5110649;28;20490;-80
2021/05/29 01:38:50;;;;;;;6.80;6.13;;;;;;;;;;5110305;28;20452;-79
2021/05/29 01:41:17;;;;;;;6.75;6.05;;;;;;;;;;5110202;28;20920;-80
2021/05/29 01:43:43;;;;;;;6.75;6.05;;;;;;;;;;5110071;28;20395;-80
2021/05/29 01:46:10;;;;;;;8.70;6.90;;;;;;;;;;5110167;28;20367;-80
2021/05/29 01:48:44;;;;;;;7.50;6.53;;;;;;;;;;5110265;28;20737;-80
2021/05/29 01:51:11;;;;;;;9.00;6.57;;;;;;;;;;5110314;28;20380;-80
2021/05/29 01:53:37;;;;;;;7.87;6.27;;;;;;;;;;5110408;28;20445;-80
2021/05/29 01:56:04;;;;;;;6.95;6.00;;;;;;;;;;5110547;28;20373;-79
2021/05/29 01:58:30;;;;;;;7.55;6.32;;;;;;;;;;5091479;28;20520;-81
2021/05/29 02:00:56;;;;;;;6.93;6.22;;;;;;;;;;5091858;28;20564;-80
2021/05/29 02:03:22;;;;;;;7.43;6.65;;;;;;;;;;5091807;28;20461;-81
2021/05/29 02:05:48;;;;;;;8.00;6.20;;;;;;;;;;5091825;28;20732;-80
2021/05/29 02:08:15;;;;;;;6.97;6.05;;;;;;;;;;5109982;28;20390;-80
2021/05/29 02:10:42;;;;;;;8.52;6.85;;;;;;;;;;5110004;28;20378;-80
2021/05/29 02:13:13;;;;;;;8.10;6.35;;;;;;;;;;5109305;28;20748;-79
2021/05/29 02:15:40;;;;;;;7.32;6.32;;;;;;;;;;5110184;28;20370;-79
2021/05/29 02:18:09;;;;;;;9.10;6.63;;;;;;;;;;5109558;28;20397;-79
2021/05/29 02:20:40;;;;;;;7.28;6.57;;;;;;;;;;5090958;28;20433;-81
2021/05/29 02:23:07;;;;;;;9.73;6.72;;;;;;;;;;5090873;28;20860;-79
2021/05/29 02:25:33;;;;;;;7.18;6.47;;;;;;;;;;5109336;28;20371;-81
2021/05/29 02:27:59;;;;;;;7.28;6.53;;;;;;;;;;5090873;28;20385;-80
2021/05/29 02:30:25;;;;;;;7.68;6.88;;;;;;;;;;5091275;28;20378;-79
2021/05/29 02:32:51;;;;;;;8.50;6.78;;;;;;;;;;5109185;28;20484;-80
2021/05/29 02:35:18;;;;;;;9.07;7.15;;;;;;;;;;5108908;28;20374;-79
2021/05/29 02:37:44;;;;;;;7.18;6.47;;;;;;;;;;5109327;28;20406;-80
2021/05/29 02:40:11;;;;;;;7.97;7.18;;;;;;;;;;5109108;28;20370;-79
2021/05/29 02:42:36;;;;;;;8.15;7.35;;;;;;;;;;5108787;28;20363;-80
2021/05/29 02:45:03;;;;;;;9.90;7.90;;;;;;;;;;5109000;28;20701;-79
2021/05/29 02:47:29;;;;;;;8.80;7.18;;;;;;;;;;5108914;28;20412;-79
2021/05/29 02:49:55;;;;;;;8.70;7.80;;;;;;;;;;5108907;28;20362;-80
2021/05/29 02:52:21;;;;;;;9.60;8.00;;;;;;;;;;5108880;28;20370;-80
2021/05/29 02:54:47;;;;;;;10.77;8.20;;;;;;;;;;5108861;28;20354;-79
2021/05/29 02:57:13;;;;;;;9.95;8.18;;;;;;;;;;5108806;28;20398;-80
2021/05/29 02:59:40;;;;;;;8.93;7.82;;;;;;;;;;5108907;28;20409;-80
2021/05/29 03:02:07;;;;;;;9.02;7.78;;;;;;;;;;5090644;28;20383;-81
2021/05/29 03:04:34;;;;;;;9.77;7.72;;;;;;;;;;5108688;28;20374;-80
2021/05/29 03:07:00;;;;;;;10.57;9.48;;;;;;;;;;5108715;28;20359;-80
2021/05/29 03:09:26;;;;;;;11.63;9.27;;;;;;;;;;5110980;28;20354;-79
2021/05/29 03:11:52;;;;;;;10.90;9.80;;;;;;;;;;5112910;28;20394;-80
2021/05/29 03:14:18;;;;;;;12.60;10.40;;;;;;;;;;5113310;28;20394;-79
2021/05/29 03:16:44;;;;;;;14.10;10.85;;;;;;;;;;5112774;28;20753;-80
2021/05/29 03:19:10;;;;;;;14.50;11.40;;;;;;;;;;5113045;28;20379;-79
2021/05/29 03:21:36;;;;;;;19.77;13.50;;;;;;;;;;5112926;28;20376;-80
2021/05/29 03:24:02;;;;;;;27.75;16.45;;;;;;;;;;5094590;28;20511;-79
2021/05/29 03:26:28;;;;;;;25.98;17.50;;;;;;;;;;5094652;28;20375;-81
2021/05/29 03:28:54;;;;;;;29.02;18.77;;;;;;;;;;5113066;28;20381;-80
2021/05/29 03:31:20;;;;;;;27.02;18.92;;;;;;;;;;5112957;28;20359;-80
2021/05/29 03:33:46;;;;;;;30.67;20.13;;;;;;;;;;5112971;28;20374;-81
2021/05/29 03:36:12;;;;;;;27.15;20.23;;;;;;;;;;5112556;28;20381;-81
2021/05/29 03:38:38;;;;;;;35.55;21.67;;;;;;;;;;5094241;28;20895;-79
2021/05/29 03:41:04;;;;;;;32.17;21.48;;;;;;;;;;5112466;28;20539;-80
2021/05/29 03:43:30;;;;;;;42.07;25.03;;;;;;;;;;5094400;28;20537;-81
2021/05/29 03:45:56;;;;;;;40.93;25.43;;;;;;;;;;5112639;28;20369;-80
2021/05/29 03:48:22;;;;;;;43.20;25.10;;;;;;;;;;5094259;28;20386;-80
2021/05/29 03:50:48;;;;;;;38.28;25.58;;;;;;;;;;5112581;28;20366;-81
2021/05/29 03:53:14;;;;;;;40.42;25.52;;;;;;;;;;5093617;28;20461;-80
2021/05/29 03:55:40;;;;;;;41.50;25.30;;;;;;;;;;5112378;28;20466;-81
2021/05/29 03:58:06;;;;;;;37.28;24.65;;;;;;;;;;5093860;28;20432;-80
2021/05/29 04:00:32;;;;;;;41.83;27.17;;;;;;;;;;5093837;28;20379;-81
2021/05/29 04:02:59;;;;;;;45.10;27.58;;;;;;;;;;5112289;28;20359;-79
2021/05/29 04:05:25;;;;;;;45.67;26.90;;;;;;;;;;5111911;28;20454;-81
2021/05/29 04:07:51;;;;;;;42.13;25.80;;;;;;;;;;5111897;28;20385;-81
2021/05/29 04:10:22;;;;;;;39.72;24.95;;;;;;;;;;5112189;28;20369;-80
2021/05/29 04:12:49;;;;;;;40.83;27.03;;;;;;;;;;5111688;28;20410;-80
2021/05/29 04:15:15;;;;;;;40.45;26.50;;;;;;;;;;5112025;28;20359;-81
2021/05/29 04:17:42;;;;;;;39.03;24.83;;;;;;;;;;5111773;28;20413;-81
2021/05/29 04:20:08;;;;;;;40.30;26.63;;;;;;;;;;5093229;28;20437;-80
2021/05/29 04:22:34;;;;;;;42.97;27.10;;;;;;;;;;5092991;28;20385;-80
2021/05/29 04:25:00;;;;;;;39.05;26.88;;;;;;;;;;5111978;28;20375;-81
2021/05/29 04:27:26;;;;;;;40.67;26.50;;;;;;;;;;5111697;28;20441;-81
2021/05/29 04:29:54;;;;;;;40.53;26.20;;;;;;;;;;5093708;28;20791;-81
2021/05/29 04:32:20;;;;;;;37.93;25.53;;;;;;;;;;5093115;28;20733;-80
2021/05/29 04:34:46;;;;;;;37.53;25.80;;;;;;;;;;5111505;28;20398;-81
2021/05/29 04:37:15;;;;;;;38.08;26.48;;;;;;;;;;5111332;28;20485;-81
2021/05/29 04:39:41;;;;;;;41.90;27.48;;;;;;;;;;5111414;28;20363;-80
2021/05/29 04:42:07;;;;;;;38.50;25.00;;;;;;;;;;5111400;28;20378;-80
2021/05/29 04:44:33;;;;;;;38.72;25.75;;;;;;;;;;5111492;28;20363;-79
2021/05/29 04:47:01;;;;;;;35.97;25.03;;;;;;;;;;5111163;28;20419;-79
2021/05/29 04:49:28;;;;;;;33.00;23.58;;;;;;;;;;5111485;28;20462;-80
2021/05/29 04:51:54;;;;;;;32.05;23.92;;;;;;;;;;5111360;28;20374;-81
2021/05/29 04:54:20;;;;;;;35.83;23.88;;;;;;;;;;5111086;28;20421;-80
2021/05/29 04:56:46;;;;;;;37.65;24.80;;;;;;;;;;5110921;28;20371;-80
2021/05/29 04:59:12;;;;;;;29.70;22.42;;;;;;;;;;5111247;28;20443;-80
2021/05/29 05:01:38;;;;;;;32.58;22.77;;;;;;;;;;5092569;28;20409;-80
2021/05/29 05:04:05;;;;;;;35.45;24.77;;;;;;;;;;5110815;28;20512;-80
2021/05/29 05:06:31;;;;;;;31.15;22.25;;;;;;;;;;5110423;28;20475;-79
2021/05/29 05:08:57;;;;;;;34.30;22.85;;;;;;;;;;5092388;28;20379;-79
2021/05/29 05:11:24;;;;;;;35.00;23.50;;;;;;;;;;5092021;28;20844;-80
2021/05/29 05:13:50;;;;;;;35.90;24.23;;;;;;;;;;5110903;28;20512;-79
2021/05/29 05:16:16;;;;;;;35.63;24.40;;;;;;;;;;5111110;28;20386;-79
2021/05/29 05:18:43;;;;;;;30.55;22.05;;;;;;;;;;5110642;28;20402;-80
2021/05/29 05:21:09;;;;;;;26.50;20.67;;;;;;;;;;5110794;28;20413;-81
2021/05/29 05:23:35;;;;;;;37.25;22.80;;;;;;;;;;5110687;28;20381;-80
2021/05/29 05:26:01;;;;;;;35.92;20.80;;;;;;;;;;5110793;28;20408;-80
2021/05/29 05:28:29;;;;;;;30.85;20.25;;;;;;;;;;5110483;28;20405;-81
2021/05/29 05:30:59;;;;;;;32.40;19.80;;;;;;;;;;5110442;28;20466;-83
2021/05/29 05:33:26;;;;;;;35.50;21.17;;;;;;;;;;5110793;28;20362;-80
2021/05/29 05:35:52;;;;;;;34.70;20.20;;;;;;;;;;5110928;28;20371;-80
2021/05/29 05:38:19;;;;;;;28.92;19.45;;;;;;;;;;5110953;28;20448;-80
2021/05/29 05:40:45;;;;;;;35.25;19.98;;;;;;;;;;5110768;28;20378;-80
2021/05/29 05:43:11;;;;;;;29.15;19.60;;;;;;;;;;5110152;28;20370;-81
2021/05/29 05:45:38;;;;;;;34.95;21.23;;;;;;;;;;5110199;28;20394;-80
2021/05/29 05:48:04;;;;;;;29.48;20.80;;;;;;;;;;5091872;28;20849;-80
2021/05/29 05:50:30;;;;;;;29.33;20.55;;;;;;;;;;5110159;28;20384;-80
2021/05/29 05:52:56;;;;;;;28.97;19.60;;;;;;;;;;5109979;28;20363;-81
2021/05/29 05:55:22;;;;;;;25.88;19.48;;;;;;;;;;5091758;28;20737;-80
2021/05/29 05:57:48;;;;;;;25.17;18.15;;;;;;;;;;5109904;28;20437;-81
2021/05/29 06:00:16;;;;;;;26.67;18.95;;;;;;;;;;5109786;28;20402;-81
2021/05/29 06:02:42;;;;;;;25.88;18.77;;;;;;;;;;5109704;28;20864;-80
2021/05/29 06:05:09;;;;;;;24.35;18.33;;;;;;;;;;5110137;28;20424;-81
2021/05/29 06:07:35;;;;;;;24.48;17.73;;;;;;;;;;5110034;28;20374;-80
2021/05/29 06:10:01;;;;;;;26.13;17.90;;;;;;;;;;5091245;28;20473;-81
2021/05/29 06:12:27;;;;;;;24.67;17.27;;;;;;;;;;5109688;28;20428;-80
2021/05/29 06:20:22;;;;;;;22.10;16.60;;;;;;;;;;5109257;28;20396;-81
2021/05/29 06:22:48;;;;;;;25.27;16.48;;;;;;;;;;5108450;28;20704;-81
2021/05/29 06:25:15;;;;;;;25.33;14.68;;;;;;;;;;5108840;28;20374;-82
2021/05/29 06:27:41;;;;;;;22.33;14.18;;;;;;;;;;5108605;28;20381;-81
2021/05/29 06:30:08;;;;;;;25.88;15.45;;;;;;;;;;5091076;28;20841;-82
2021/05/29 06:32:34;;;;;;;18.45;14.32;;;;;;;;;;5109351;28;20409;-80
2021/05/29 06:35:00;;;;;;;21.85;14.90;;;;;;;;;;5109316;28;20371;-81
2021/05/29 06:37:26;;;;;;;20.30;13.82;;;;;;;;;;5091079;28;20398;-81
2021/05/29 06:39:52;;;;;;;18.70;14.10;;;;;;;;;;5109509;28;20924;-84
2021/05/29 06:42:18;;;;;;;19.23;13.32;;;;;;;;;;5085352;28;20884;-82
2021/05/29 06:44:44;;;;;;;18.98;13.30;;;;;;;;;;5109239;28;20396;-81
2021/05/29 06:47:10;;;;;;;17.27;12.77;;;;;;;;;;5090558;28;20733;-81
2021/05/29 06:49:37;;;;;;;22.02;13.80;;;;;;;;;;5073552;28;20874;-83
2021/05/29 06:52:15;;;;;;;20.77;13.55;;;;;;;;;;5095838;28;20459;-84
2021/05/29 07:00:11;;;;;;;17.27;11.55;;;;;;;;;;5109146;28;20377;-81
2021/05/29 07:02:38;;;;;;;20.17;11.95;;;;;;;;;;5108340;28;20371;-80
2021/05/29 07:05:04;;;;;;;14.50;11.38;;;;;;;;;;5090204;28;20374;-84
2021/05/29 07:07:31;;;;;;;17.63;12.20;;;;;;;;;;5108856;28;20437;-82
2021/05/29 07:09:57;;;;;;;16.77;11.70;;;;;;;;;;5108857;28;20473;-81
2021/05/29 07:12:23;;;;;;;19.73;11.17;;;;;;;;;;5108427;28;20412;-81
2021/05/29 07:14:49;;;;;;;16.70;11.65;;;;;;;;;;5108816;28;20443;-82
2021/05/29 07:17:15;;;;;;;18.50;11.00;;;;;;;;;;5108676;28;20768;-81
2021/05/29 07:19:41;;;;;;;18.13;11.85;;;;;;;;;;5108367;28;20984;-81
2021/05/29 07:22:07;;;;;;;16.65;12.23;;;;;;;;;;5108591;28;20370;-81
2021/05/29 07:24:35;;;;;;;18.70;13.32;;;;;;;;;;5090046;28;20382;-81
2021/05/29 07:27:01;;;;;;;19.53;13.17;;;;;;;;;;5084522;28;20395;-81
2021/05/29 07:29:27;;;;;;;17.08;12.38;;;;;;;;;;5070282;28;20385;-81
2021/05/29 07:31:53;;;;;;;19.45;13.27;;;;;;;;;;5095322;28;20385;-80
2021/05/29 07:34:20;;;;;;;17.45;13.45;;;;;;;;;;5090171;28;20378;-81
2021/05/29 07:36:47;;;;;;;19.33;12.88;;;;;;;;;;5102158;28;20477;-81
2021/05/29 07:39:13;;;;;;;17.88;12.70;;;;;;;;;;5082347;28;20761;-80
2021/05/29 07:41:39;;;;;;;15.02;11.35;;;;;;;;;;5108426;28;20355;-81
2021/05/29 07:44:06;;;;;;;17.50;11.38;;;;;;;;;;5107817;28;20383;-81
2021/05/29 07:46:34;;;;;;;16.90;12.13;;;;;;;;;;5108675;28;20378;-80
2021/05/29 07:49:00;;;;;;;16.40;12.18;;;;;;;;;;5087582;28;20378;-81
2021/05/29 07:51:26;;;;;;;18.52;11.60;;;;;;;;;;5070177;28;20392;-80
2021/05/29 07:53:52;;;;;;;13.50;11.20;;;;;;;;;;5088633;28;20372;-82
2021/05/29 07:56:21;;;;;;;17.10;12.07;;;;;;;;;;5093974;28;20462;-81
2021/05/29 07:58:48;;;;;;;16.50;12.23;;;;;;;;;;5111731;28;20394;-81
2021/05/29 08:01:15;;;;;;;13.52;11.18;;;;;;;;;;5084588;28;20447;-81
2021/05/29 08:03:41;;;;;;;15.68;11.30;;;;;;;;;;5065281;28;20802;-81
2021/05/29 08:06:11;;;;;;;16.88;10.73;;;;;;;;;;5110731;28;20378;-85
2021/05/29 08:08:37;;;;;;;17.80;10.30;;;;;;;;;;5112461;28;20363;-86
2021/05/29 08:11:04;;;;;;;16.10;10.67;;;;;;;;;;5093916;28;20884;-81
2021/05/29 08:13:30;;;;;;;17.03;11.23;;;;;;;;;;5092012;28;20380;-81
2021/05/29 08:15:56;;;;;;;12.18;10.23;;;;;;;;;;5105310;28;20400;-82
2021/05/29 08:18:22;;;;;;;13.20;10.60;;;;;;;;;;5111312;28;20405;-82
2021/05/29 08:20:48;;;;;;;16.30;10.68;;;;;;;;;;5112120;28;20359;-83
2021/05/29 08:23:15;;;;;;;14.68;10.15;;;;;;;;;;5106901;28;20765;-83
2021/05/29 08:25:41;;;;;;;13.32;9.95;;;;;;;;;;5111645;28;20354;-82
2021/05/29 08:28:07;;;;;;;12.65;9.70;;;;;;;;;;5093474;28;20396;-84
2021/05/29 08:30:33;;;;;;;15.38;10.15;;;;;;;;;;5091289;28;20372;-85
2021/05/29 08:32:59;;;;;;;11.88;10.00;;;;;;;;;;5107600;28;20402;-87
2021/05/29 08:35:26;;;;;;;16.38;10.90;;;;;;;;;;5110326;28;20379;-81
2021/05/29 08:37:52;;;;;;;13.60;10.00;;;;;;;;;;5094272;28;20861;-83
2021/05/29 08:40:19;;;;;;;15.50;10.30;;;;;;;;;;5072824;28;20412;-82
2021/05/29 08:42:46;;;;;;;17.58;10.15;;;;;;;;;;5105345;28;20375;-82
2021/05/29 08:45:13;;;;;;;16.52;10.55;;;;;;;;;;5111407;28;20457;-81
2021/05/29 08:47:39;;;;;;;15.32;10.50;;;;;;;;;;5079957;28;20381;-80
2021/05/29 08:50:05;;;;;;;14.60;10.70;;;;;;;;;;5103293;28;20383;-82
2021/05/29 08:52:36;;;;;;;14.98;11.40;;;;;;;;;;5092729;28;20468;-81
2021/05/29 08:55:03;;;;;;;18.55;12.10;;;;;;;;;;5111220;28;20382;-83
2021/05/29 08:57:29;;;;;;;18.80;11.80;;;;;;;;;;5092735;28;20489;-82
2021/05/29 08:59:56;;;;;;;19.10;12.10;;;;;;;;;;5110054;28;20525;-84
2021/05/29 09:02:22;;;;;;;18.23;11.83;;;;;;;;;;5093048;28;20386;-84
2021/05/29 09:05:06;;;;;;;18.20;11.50;;;;;;;;;;5110839;28;20465;-83
2021/05/29 09:07:32;;;;;;;17.27;10.77;;;;;;;;;;5110289;28;20897;-84
2021/05/29 09:10:33;;;;;;;13.50;10.50;;;;;;;;;;5092010;28;20371;-86
2021/05/29 09:13:11;;;;;;;17.55;11.13;;;;;;;;;;5046639;28;20384;-82
2021/05/29 09:15:57;;;;;;;15.90;10.80;;;;;;;;;;5097383;27;20470;-81
2021/05/29 09:18:23;;;;;;;18.90;10.85;;;;;;;;;;5090240;27;20460;-85
2021/05/29 09:20:49;;;;;;;15.40;10.75;;;;;;;;;;5109242;27;20397;-83
2021/05/29 09:23:16;;;;;;;14.40;10.15;;;;;;;;;;5109126;28;20366;-85
2021/05/29 09:25:52;;;;;;;15.93;10.03;;;;;;;;;;5087645;28;20929;-83
2021/05/29 09:28:25;;;;;;;15.57;10.50;;;;;;;;;;5082904;28;20370;-83
2021/05/29 09:30:53;;;;;;;13.82;10.30;;;;;;;;;;5107412;27;20498;-86
2021/05/29 09:33:21;;;;;;;13.00;10.27;;;;;;;;;;5103483;28;20390;-81
2021/05/29 09:35:58;;;;;;;14.05;11.05;;;;;;;;;;5102435;28;20387;-84
2021/05/29 09:38:32;;;;;;;13.55;10.63;;;;;;;;;;5105272;27;20405;-83
2021/05/29 09:40:59;;;;;;;15.38;11.23;;;;;;;;;;5105363;28;20440;-83
2021/05/29 09:43:25;;;;;;;13.90;11.27;;;;;;;;;;5087831;28;20391;-85
2021/05/29 09:46:05;;;;;;;17.75;11.63;;;;;;;;;;5104308;27;20368;-83
2021/05/29 09:48:31;;;;;;;15.88;11.38;;;;;;;;;;5104217;28;20386;-86
2021/05/29 09:50:59;;;;;;;15.00;11.52;;;;;;;;;;5105313;27;20401;-86
2021/05/29 09:53:26;;;;;;;15.82;11.73;;;;;;;;;;5105001;28;20464;-84
2021/05/29 09:55:52;;;;;;;18.58;11.77;;;;;;;;;;5104747;27;20492;-80
2021/05/29 09:58:18;;;;;;;15.45;10.82;;;;;;;;;;5105660;28;20390;-84
2021/05/29 10:00:50;;;;;;;13.75;10.70;;;;;;;;;;5086607;28;20722;-80
2021/05/29 10:03:16;;;;;;;15.38;11.70;;;;;;;;;;5103914;28;20854;-82
2021/05/29 10:05:53;;;;;;;14.70;10.88;;;;;;;;;;5088272;28;20407;-85
2021/05/29 10:08:19;;;;;;;15.43;10.83;;;;;;;;;;5105436;28;20386;-82
2021/05/29 10:10:45;;;;;;;15.43;10.75;;;;;;;;;;5088419;28;20388;-82
2021/05/29 10:13:11;;;;;;;14.38;9.90;;;;;;;;;;5087926;28;20406;-82
2021/05/29 10:15:37;;;;;;;16.05;10.52;;;;;;;;;;5105605;28;20860;-82
2021/05/29 10:18:06;;;;;;;12.90;9.88;;;;;;;;;;5103722;28;20406;-80
2021/05/29 10:20:32;;;;;;;16.48;10.10;;;;;;;;;;5104775;28;20394;-83
2021/05/29 10:23:00;;;;;;;14.73;10.57;;;;;;;;;;5094918;28;20502;-85
2021/05/29 10:25:26;;;;;;;14.00;10.65;;;;;;;;;;5091577;28;20733;-83
2021/05/29 10:27:54;;;;;;;12.88;9.80;;;;;;;;;;5107393;27;20418;-82
2021/05/29 10:30:21;;;;;;;14.50;10.25;;;;;;;;;;5101308;28;20468;-82
2021/05/29 10:33:07;;;;;;;13.30;10.18;;;;;;;;;;5104426;28;20864;-86
2021/05/29 10:35:42;;;;;;;15.35;10.65;;;;;;;;;;5085685;28;20853;-84
2021/05/29 10:38:08;;;;;;;14.77;10.38;;;;;;;;;;5087275;28;20432;-83
2021/05/29 10:40:36;;;;;;;15.13;10.52;;;;;;;;;;5104989;28;20367;-82
2021/05/29 10:43:07;;;;;;;12.50;10.52;;;;;;;;;;5102430;28;20379;-81
2021/05/29 10:45:34;;;;;;;14.80;9.95;;;;;;;;;;5104321;27;20371;-82
2021/05/29 10:48:04;;;;;;;12.50;10.02;;;;;;;;;;5084840;28;20749;-80
2021/05/29 10:53:36;;;;;;;14.35;9.57;;;;;;;;;;5096506;28;20395;-82
2021/05/29 10:59:07;;;;;;;15.23;10.57;;;;;;;;;;5097147;27;20492;-80
2021/05/29 11:01:37;;;;;;;11.00;9.30;;;;;;;;;;5098761;28;20488;-81
2021/05/29 11:04:13;;;;;;;13.87;9.33;;;;;;;;;;5096536;28;20385;-81
2021/05/29 11:06:41;;;;;;;14.27;9.05;;;;;;;;;;5102316;28;20363;-80
2021/05/29 11:09:08;;;;;;;13.88;9.63;;;;;;;;;;5103167;28;20925;-82
2021/05/29 11:12:09;;;;;;;14.23;9.52;;;;;;;;;;5101395;28;20378;-80
2021/05/29 11:14:30;;;;;;;11.80;9.75;;;;;;;;;;5098235;28;20855;-82
2021/05/29 11:16:57;;;;;;;13.55;9.52;;;;;;;;;;5103046;28;20368;-80
2021/05/29 11:19:36;;;;;;;12.30;8.98;;;;;;;;;;5099271;28;20408;-80
2021/05/29 11:22:03;;;;;;;13.43;9.10;;;;;;;;;;5080016;28;20386;-82
2021/05/29 11:24:32;;;;;;;12.60;9.38;;;;;;;;;;5100523;28;20375;-80
2021/05/29 11:26:58;;;;;;;13.55;8.35;;;;;;;;;;5100294;28;20381;-80
2021/05/29 11:29:24;;;;;;;12.20;9.23;;;;;;;;;;5100128;28;20382;-80
2021/05/29 11:31:52;;;;;;;13.50;8.83;;;;;;;;;;5104798;28;20443;-82
2021/05/29 11:34:18;;;;;;;11.30;8.88;;;;;;;;;;5087162;28;20962;-81
2021/05/29 11:36:44;;;;;;;12.82;9.20;;;;;;;;;;5087921;28;20567;-82
2021/05/29 11:39:12;;;;;;;11.43;8.68;;;;;;;;;;5104589;28;20448;-81
2021/05/29 11:41:38;;;;;;;12.18;8.13;;;;;;;;;;5103868;28;20398;-83
2021/05/29 11:44:06;;;;;;;10.90;8.43;;;;;;;;;;5086960;28;20744;-83
2021/05/29 11:46:32;;;;;;;11.47;8.00;;;;;;;;;;5106148;28;20358;-82
2021/05/29 11:48:59;;;;;;;12.07;8.50;;;;;;;;;;5104992;28;20367;-80
2021/05/29 11:51:26;;;;;;;11.93;8.38;;;;;;;;;;5106108;28;21536;-82
2021/05/29 11:53:56;;;;;;;11.68;7.78;;;;;;;;;;5105351;28;20998;-81
2021/05/29 11:56:35;;;;;;;11.05;8.20;;;;;;;;;;5100748;27;20443;-81
2021/05/29 11:59:04;;;;;;;12.30;7.35;;;;;;;;;;5103086;28;20456;-80
2021/05/29 12:01:32;;;;;;;10.77;8.60;;;;;;;;;;5104777;27;21340;-81
2021/05/29 12:04:01;;;;;;;11.65;8.55;;;;;;;;;;5105585;28;20854;-82
2021/05/29 12:07:01;;;;;;;13.20;9.35;;;;;;;;;;5095907;27;20955;-81
2021/05/29 12:09:31;;;;;;;12.13;8.30;;;;;;;;;;5056982;28;20390;-81
2021/05/29 12:12:05;;;;;;;11.48;8.57;;;;;;;;;;5089346;28;20394;-83
2021/05/29 12:14:38;;;;;;;11.17;8.00;;;;;;;;;;5102752;27;20454;-85
2021/05/29 12:17:15;;;;;;;10.80;8.70;;;;;;;;;;5104612;28;20375;-84
2021/05/29 12:19:43;;;;;;;11.07;8.00;;;;;;;;;;5104432;28;20370;-80
2021/05/29 12:22:19;;;;;;;12.80;7.95;;;;;;;;;;5103180;28;20467;-84
2021/05/29 12:24:51;;;;;;;12.03;7.83;;;;;;;;;;5104900;28;20390;-81
2021/05/29 12:27:18;;;;;;;11.68;7.57;;;;;;;;;;5103070;28;20827;-83
2021/05/29 12:29:44;;;;;;;9.95;7.90;;;;;;;;;;5097819;28;20437;-82
2021/05/29 12:32:11;;;;;;;11.27;7.43;;;;;;;;;;5108318;28;20369;-82
2021/05/29 12:34:50;;;;;;;9.82;7.30;;;;;;;;;;5108257;28;20856;-82
2021/05/29 12:37:17;;;;;;;11.77;7.40;;;;;;;;;;5090057;28;20385;-78
2021/05/29 12:39:44;;;;;;;12.82;8.07;;;;;;;;;;5089850;28;20895;-83
2021/05/29 12:42:19;;;;;;;10.88;8.20;;;;;;;;;;5108238;28;20433;-81
2021/05/29 12:44:49;;;;;;;10.05;7.15;;;;;;;;;;5103708;27;20389;-82
2021/05/29 12:47:16;;;;;;;13.50;8.13;;;;;;;;;;5104478;27;20478;-82
2021/05/29 12:49:42;;;;;;;10.25;7.55;;;;;;;;;;5103822;28;20437;-82
2021/05/29 12:52:20;;;;;;;11.52;6.95;;;;;;;;;;5086407;28;20789;-80
2021/05/29 12:54:46;;;;;;;10.37;7.17;;;;;;;;;;5085414;28;20829;-82
2021/05/29 12:57:12;;;;;;;10.20;6.97;;;;;;;;;;5103596;28;20432;-82
2021/05/29 12:59:38;;;;;;;8.77;6.50;;;;;;;;;;5104039;28;20388;-80
2021/05/29 13:07:34;;;;;;;10.30;6.30;;;;;;;;;;5107176;28;20397;-82
2021/05/29 13:10:52;;;;;;;10.68;6.30;;;;;;;;;;5107537;28;20382;-80
2021/05/29 13:13:05;;;;;;;10.10;6.72;;;;;;;;;;5097971;27;20383;-81
2021/05/29 13:15:32;;;;;;;8.32;6.40;;;;;;;;;;5106934;28;20386;-83
2021/05/29 13:18:11;;;;;;;9.30;6.03;;;;;;;;;;5092099;28;20438;-82
2021/05/29 13:20:39;;;;;;;9.20;6.43;;;;;;;;;;5106399;28;20440;-82
2021/05/29 13:23:05;;;;;;;7.90;6.25;;;;;;;;;;5107582;28;20374;-83
2021/05/29 13:25:41;;;;;;;10.18;6.28;;;;;;;;;;5106590;28;20381;-84
2021/05/29 13:28:08;;;;;;;8.70;6.53;;;;;;;;;;5102064;27;20755;-82
2021/05/29 13:30:35;;;;;;;8.03;6.67;;;;;;;;;;5087071;28;20792;-81
2021/05/29 13:33:02;;;;;;;8.45;5.82;;;;;;;;;;5072194;28;20888;-84
2021/05/29 13:35:28;;;;;;;8.98;6.68;;;;;;;;;;5101978;28;20432;-83
2021/05/29 13:37:54;;;;;;;8.02;6.30;;;;;;;;;;5106796;28;20430;-79
2021/05/29 13:40:20;;;;;;;8.00;6.28;;;;;;;;;;5105961;28;20413;-81
2021/05/29 13:42:46;;;;;;;9.20;6.07;;;;;;;;;;5100955;27;20896;-81
2021/05/29 13:45:26;;;;;;;9.73;6.53;;;;;;;;;;5121663;27;20367;-81
2021/05/29 13:47:52;;;;;;;8.05;6.43;;;;;;;;;;5089383;28;20783;-83
2021/05/29 13:50:19;;;;;;;8.70;6.10;;;;;;;;;;5106975;28;20374;-81
2021/05/29 13:52:46;;;;;;;7.90;5.93;;;;;;;;;;5105653;28;20363;-77
2021/05/29 13:55:12;;;;;;;8.82;6.10;;;;;;;;;;5088291;28;20733;-80
2021/05/29 13:57:38;;;;;;;9.10;6.38;;;;;;;;;;5105834;28;20414;-84
2021/05/29 14:00:05;;;;;;;7.90;6.05;;;;;;;;;;5106758;28;20382;-83
2021/05/29 14:02:31;;;;;;;6.68;5.70;;;;;;;;;;5106417;28;20374;-82
2021/05/29 14:04:57;;;;;;;8.35;6.60;;;;;;;;;;5106334;28;20375;-84
2021/05/29 14:07:23;;;;;;;8.93;5.70;;;;;;;;;;5106786;28;20371;-81
2021/05/29 14:09:49;;;;;;;8.03;5.73;;;;;;;;;;5106294;28;20453;-80
2021/05/29 14:12:15;;;;;;;8.03;5.83;;;;;;;;;;5118376;27;20375;-79
2021/05/29 14:14:41;;;;;;;8.23;5.82;;;;;;;;;;5100746;27;20380;-82
2021/05/29 14:17:08;;;;;;;7.97;6.00;;;;;;;;;;5087532;28;20381;-81
2021/05/29 14:19:34;;;;;;;8.57;5.80;;;;;;;;;;5116005;27;20394;-82
2021/05/29 14:22:00;;;;;;;9.65;6.45;;;;;;;;;;5113603;27;20379;-85
2021/05/29 14:24:27;;;;;;;9.40;6.53;;;;;;;;;;5110634;27;20381;-82
2021/05/29 14:26:53;;;;;;;8.32;5.95;;;;;;;;;;5123806;27;20471;-83
2021/05/29 14:29:20;;;;;;;9.02;6.10;;;;;;;;;;5105977;28;20412;-80
2021/05/29 14:31:46;;;;;;;7.47;6.27;;;;;;;;;;5098491;28;20393;-80
2021/05/29 14:34:13;;;;;;;7.53;6.18;;;;;;;;;;5104661;28;21190;-84
2021/05/29 14:36:39;;;;;;;8.45;6.03;;;;;;;;;;5118362;27;20453;-82
2021/05/29 14:39:06;;;;;;;9.63;6.30;;;;;;;;;;5103849;28;20440;-81
2021/05/29 14:41:33;;;;;;;7.67;5.73;;;;;;;;;;5102466;28;20371;-80
2021/05/29 14:43:59;;;;;;;9.60;6.20;;;;;;;;;;5101978;28;20371;-81
2021/05/29 14:46:26;;;;;;;10.40;6.32;;;;;;;;;;5107368;28;20438;-83
2021/05/29 14:48:52;;;;;;;8.05;5.90;;;;;;;;;;5108371;28;20497;-80
2021/05/29 14:51:19;;;;;;;9.13;6.28;;;;;;;;;;5108481;28;20374;-84
2021/05/29 14:53:47;;;;;;;8.77;6.72;;;;;;;;;;5109153;28;20392;-81
2021/05/29 14:56:13;;;;;;;9.57;6.50;;;;;;;;;;5106498;28;20385;-80